sensor_id;sensor_type;location;lat;lon;timestamp;pressure;altitude;pressure_sealevel;temperature;humidity
22775;BME280;11554;51.106;3.684;2023-12-04T00:00:00;101061.31;;;0.82;100.0
22775;BME280;11554;51.106;3.684;2023-12-04T00:05:00;101053.74;;;0.82;100.0
22775;BME280;11554;51.106;3.684;2023-12-04T00:10:00;101047.64;;;0.86;100.0
22775;BME280;11554;51.106;3.684;2023-12-04T00:15:00;101043.53;;;0.89;100.0
22775;BME280;11554;51.106;3.684;2023-12-04T00:20:00;101036.08;;;0.83;100.0
22775;BME280;11554;51.106;3.684;2023-12-04T00:25:00;101021.64;;;0.74;100.0
22775;BME280;11554;51.106;3.684;2023-12-04T00:30:00;101014.97;;;0.74;100.0
22775;BME280;11554;51.106;3.684;2023-12-04T00:35:00;101007.64;;;0.74;100.0
22775;BME280;11554;51.106;3.684;2023-12-04T00:40:00;101004.98999999999;;;0.74;100.0
22775;BME280;11554;51.106;3.684;2023-12-04T00:45:01;101001.01;;;0.73;100.0
22775;BME280;11554;51.106;3.684;2023-12-04T00:50:00;100989.25;;;0.74;100.0
22775;BME280;11554;51.106;3.684;2023-12-04T00:55:00;100986.5;;;0.73;100.0
22775;BME280;11554;51.106;3.684;2023-12-04T01:00:00;100977.67;;;0.69;100.0
22775;BME280;11554;51.106;3.684;2023-12-04T01:05:00;100971.64;;;0.72;100.0
22775;BME280;11554;51.106;3.684;2023-12-04T01:10:00;100964.79000000001;;;0.69;100.0
22775;BME280;11554;51.106;3.684;2023-12-04T01:15:00;100950.12000000001;;;0.73;100.0
22775;BME280;11554;51.106;3.684;2023-12-04T01:20:00;100945.31;;;0.77;100.0
22775;BME280;11554;51.106;3.684;2023-12-04T01:25:00;100940.28;;;0.78;100.0
22775;BME280;11554;51.106;3.684;2023-12-04T01:30:00;100938.68;;;0.78;100.0
22775;BME280;11554;51.106;3.684;2023-12-04T01:35:01;100928.02;;;0.79;100.0
22775;BME280;11554;51.106;3.684;2023-12-04T01:40:00;100927.23;;;0.84;100.0
22775;BME280;11554;51.106;3.684;2023-12-04T01:45:00;100924.95999999999;;;0.84;100.0
22775;BME280;11554;51.106;3.684;2023-12-04T01:50:00;100915.98;;;0.93;100.0
22775;BME280;11554;51.106;3.684;2023-12-04T01:55:00;100910.36;;;0.91;100.0
22775;BME280;11554;51.106;3.684;2023-12-04T02:00:00;100904.85;;;0.94;100.0
22775;BME280;11554;51.106;3.684;2023-12-04T02:05:00;100900.19;;;0.98;100.0
22775;BME280;11554;51.106;3.684;2023-12-04T02:10:00;100891.31;;;0.99;100.0
22775;BME280;11554;51.106;3.684;2023-12-04T02:15:00;100876.12000000001;;;0.98;100.0
22775;BME280;11554;51.106;3.684;2023-12-04T02:20:00;100872.11;;;1.01;100.0
22775;BME280;11554;51.106;3.684;2023-12-04T02:25:00;100862.09;;;1.03;100.0
22775;BME280;11554;51.106;3.684;2023-12-04T02:30:00;100855.69;;;1.04;100.0
22775;BME280;11554;51.106;3.684;2023-12-04T02:35:01;100842.31;;;1.01;100.0
22775;BME280;11554;51.106;3.684;2023-12-04T02:40:00;100840.37;;;1.05;100.0
22775;BME280;11554;51.106;3.684;2023-12-04T02:45:00;100829.52;;;1.06;100.0
22775;BME280;11554;51.106;3.684;2023-12-04T02:50:00;100820.72;;;1.09;100.0
22775;BME280;11554;51.106;3.684;2023-12-04T02:55:00;100810.08;;;1.10;100.0
22775;BME280;11554;51.106;3.684;2023-12-04T03:00:00;100803.68999999999;;;1.14;100.0
22775;BME280;11554;51.106;3.684;2023-12-04T03:05:00;100797.88;;;1.10;100.0
22775;BME280;11554;51.106;3.684;2023-12-04T03:10:00;100793.14;;;1.12;100.0
22775;BME280;11554;51.106;3.684;2023-12-04T03:15:00;100781.15000000001;;;1.13;100.0
22775;BME280;11554;51.106;3.684;2023-12-04T03:20:00;100769.05;;;1.15;100.0
22775;BME280;11554;51.106;3.684;2023-12-04T03:25:00;100755.40999999999;;;1.14;100.0
22775;BME280;11554;51.106;3.684;2023-12-04T03:30:00;100745.01000000001;;;1.13;100.0
22775;BME280;11554;51.106;3.684;2023-12-04T03:35:00;100742.39;;;1.08;100.0
22775;BME280;11554;51.106;3.684;2023-12-04T03:40:00;100725.92;;;1.09;100.0
22775;BME280;11554;51.106;3.684;2023-12-04T03:45:00;100722.63;;;1.06;100.0
22775;BME280;11554;51.106;3.684;2023-12-04T03:50:00;100717.28;;;1.07;100.0
22775;BME280;11554;51.106;3.684;2023-12-04T03:55:00;100732.37000000001;;;1.15;100.0
22775;BME280;11554;51.106;3.684;2023-12-04T04:00:00;100718.56;;;1.16;100.0
22775;BME280;11554;51.106;3.684;2023-12-04T04:05:00;100714.73;;;1.17;99.96
22775;BME280;11554;51.106;3.684;2023-12-04T04:10:00;100708.69;;;1.16;100.0
22775;BME280;11554;51.106;3.684;2023-12-04T04:15:00;100703.0;;;1.20;99.71
22775;BME280;11554;51.106;3.684;2023-12-04T04:20:00;100698.19;;;1.21;99.9
22775;BME280;11554;51.106;3.684;2023-12-04T04:25:00;100694.26999999999;;;1.16;100.0
22775;BME280;11554;51.106;3.684;2023-12-04T04:30:00;100689.62;;;1.14;100.0
22775;BME280;11554;51.106;3.684;2023-12-04T04:35:00;100686.05;;;1.18;99.86
22775;BME280;11554;51.106;3.684;2023-12-04T04:40:00;100693.25;;;1.21;99.91
22775;BME280;11554;51.106;3.684;2023-12-04T04:45:00;100680.59;;;1.24;99.16
22775;BME280;11554;51.106;3.684;2023-12-04T04:50:00;100673.20999999999;;;1.24;99.77
22775;BME280;11554;51.106;3.684;2023-12-04T04:55:00;100676.79000000001;;;1.22;99.71
22775;BME280;11554;51.106;3.684;2023-12-04T05:00:00;100668.44;;;1.29;98.22
22775;BME280;11554;51.106;3.684;2023-12-04T05:05:02;100660.18000000001;;;1.30;98.3
22775;BME280;11554;51.106;3.684;2023-12-04T05:10:00;100642.40999999999;;;1.36;97.79
22775;BME280;11554;51.106;3.684;2023-12-04T05:15:00;100630.57;;;1.35;97.91
22775;BME280;11554;51.106;3.684;2023-12-04T05:20:00;100619.76;;;1.38;97.46
22775;BME280;11554;51.106;3.684;2023-12-04T05:25:00;100604.53;;;1.45;96.22
22775;BME280;11554;51.106;3.684;2023-12-04T05:30:00;100590.61;;;1.48;95.98
22775;BME280;11554;51.106;3.684;2023-12-04T05:35:00;100588.62000000001;;;1.49;95.83
22775;BME280;11554;51.106;3.684;2023-12-04T05:40:00;100581.34;;;1.53;95.58
22775;BME280;11554;51.106;3.684;2023-12-04T05:45:00;100583.06999999999;;;1.56;95.13
22775;BME280;11554;51.106;3.684;2023-12-04T05:50:00;100587.3;;;1.54;95.14
22775;BME280;11554;51.106;3.684;2023-12-04T05:55:00;100593.04;;;1.54;94.88
22775;BME280;11554;51.106;3.684;2023-12-04T06:00:00;100578.54999999999;;;1.64;93.08
22775;BME280;11554;51.106;3.684;2023-12-04T06:05:00;100572.38;;;1.64;93.25
22775;BME280;11554;51.106;3.684;2023-12-04T06:10:00;100570.0;;;1.67;92.87
22775;BME280;11554;51.106;3.684;2023-12-04T06:15:00;100572.28;;;1.67;92.86
22775;BME280;11554;51.106;3.684;2023-12-04T06:20:00;100564.47;;;1.67;93.01
22775;BME280;11554;51.106;3.684;2023-12-04T06:25:00;100559.64;;;1.67;92.31
22775;BME280;11554;51.106;3.684;2023-12-04T06:30:00;100565.14;;;1.65;92.8
22775;BME280;11554;51.106;3.684;2023-12-04T06:35:00;100547.81;;;1.63;92.59
22775;BME280;11554;51.106;3.684;2023-12-04T06:40:00;100548.29999999999;;;1.63;92.85
22775;BME280;11554;51.106;3.684;2023-12-04T06:45:00;100551.9;;;1.66;92.26
22775;BME280;11554;51.106;3.684;2023-12-04T06:50:00;100553.61;;;1.63;93.0
22775;BME280;11554;51.106;3.684;2023-12-04T06:55:00;100544.34;;;1.70;92.03
22775;BME280;11554;51.106;3.684;2023-12-04T07:00:00;100535.6;;;1.68;92.49
22775;BME280;11554;51.106;3.684;2023-12-04T07:05:00;100534.98;;;1.75;90.79
22775;BME280;11554;51.106;3.684;2023-12-04T07:10:00;100527.84;;;1.77;90.91
22775;BME280;11554;51.106;3.684;2023-12-04T07:15:00;100519.81;;;1.72;91.83
22775;BME280;11554;51.106;3.684;2023-12-04T07:20:00;100511.61;;;1.68;92.99
22775;BME280;11554;51.106;3.684;2023-12-04T07:25:00;100505.59;;;1.69;92.72
22775;BME280;11554;51.106;3.684;2023-12-04T07:30:00;100503.06;;;1.74;92.31
22775;BME280;11554;51.106;3.684;2023-12-04T07:35:00;100495.54000000001;;;1.72;93.48
22775;BME280;11554;51.106;3.684;2023-12-04T07:40:00;100478.59;;;1.71;94.23
22775;BME280;11554;51.106;3.684;2023-12-04T07:45:00;100474.04000000001;;;1.72;94.87
22775;BME280;11554;51.106;3.684;2023-12-04T07:50:00;100472.14;;;1.74;95.27
22775;BME280;11554;51.106;3.684;2023-12-04T07:55:00;100461.0;;;1.75;96.2
22775;BME280;11554;51.106;3.684;2023-12-04T08:00:00;100452.82999999999;;;1.76;97.46
22775;BME280;11554;51.106;3.684;2023-12-04T08:05:00;100442.4;;;1.74;98.67
22775;BME280;11554;51.106;3.684;2023-12-04T08:10:00;100432.79;;;1.77;99.93
22775;BME280;11554;51.106;3.684;2023-12-04T08:15:00;100422.56;;;1.76;100.0
22775;BME280;11554;51.106;3.684;2023-12-04T08:20:00;100420.03;;;1.78;100.0
22775;BME280;11554;51.106;3.684;2023-12-04T08:25:00;100411.77;;;1.83;100.0
22775;BME280;11554;51.106;3.684;2023-12-04T08:30:00;100418.02;;;1.90;100.0
22775;BME280;11554;51.106;3.684;2023-12-04T08:35:00;100416.52;;;2.01;100.0
22775;BME280;11554;51.106;3.684;2023-12-04T08:40:00;100406.5;;;2.09;100.0
22775;BME280;11554;51.106;3.684;2023-12-04T08:45:00;100406.45;;;2.14;100.0
22775;BME280;11554;51.106;3.684;2023-12-04T08:50:00;100408.01;;;2.19;100.0
22775;BME280;11554;51.106;3.684;2023-12-04T08:55:00;100397.78;;;2.22;100.0
22775;BME280;11554;51.106;3.684;2023-12-04T09:00:00;100387.13;;;2.25;100.0
22775;BME280;11554;51.106;3.684;2023-12-04T09:05:00;100385.83;;;2.24;100.0
22775;BME280;11554;51.106;3.684;2023-12-04T09:10:00;100388.5;;;2.26;100.0
22775;BME280;11554;51.106;3.684;2023-12-04T09:15:00;100379.64;;;2.26;100.0
22775;BME280;11554;51.106;3.684;2023-12-04T09:20:00;100385.38;;;2.27;100.0
22775;BME280;11554;51.106;3.684;2023-12-04T09:25:00;100377.5;;;2.32;100.0
22775;BME280;11554;51.106;3.684;2023-12-04T09:30:00;100367.64;;;2.39;100.0
22775;BME280;11554;51.106;3.684;2023-12-04T09:35:00;100364.22;;;2.41;100.0
22775;BME280;11554;51.106;3.684;2023-12-04T09:40:00;100370.29;;;2.38;100.0
22775;BME280;11554;51.106;3.684;2023-12-04T09:45:00;100363.45;;;2.34;100.0
22775;BME280;11554;51.106;3.684;2023-12-04T09:50:00;100359.77;;;2.36;100.0
22775;BME280;11554;51.106;3.684;2023-12-04T09:55:00;100354.71;;;2.40;100.0
22775;BME280;11554;51.106;3.684;2023-12-04T10:00:00;100357.03;;;2.41;100.0
22775;BME280;11554;51.106;3.684;2023-12-04T10:05:00;100345.29;;;2.35;100.0
22775;BME280;11554;51.106;3.684;2023-12-04T10:10:00;100339.5;;;2.29;100.0
22775;BME280;11554;51.106;3.684;2023-12-04T10:15:04;100322.67;;;2.22;100.0
22775;BME280;11554;51.106;3.684;2023-12-04T10:20:03;100313.36;;;2.27;100.0
22775;BME280;11554;51.106;3.684;2023-12-04T10:25:00;100313.06;;;2.27;100.0
22775;BME280;11554;51.106;3.684;2023-12-04T10:30:00;100295.61;;;2.29;100.0
22775;BME280;11554;51.106;3.684;2023-12-04T10:35:00;100287.14;;;2.25;100.0
22775;BME280;11554;51.106;3.684;2023-12-04T10:40:00;100288.01;;;2.20;100.0
22775;BME280;11554;51.106;3.684;2023-12-04T10:45:00;100265.59;;;2.30;100.0
22775;BME280;11554;51.106;3.684;2023-12-04T10:50:00;100257.48;;;2.34;100.0
22775;BME280;11554;51.106;3.684;2023-12-04T10:55:00;100251.95;;;2.35;100.0
22775;BME280;11554;51.106;3.684;2023-12-04T11:00:01;100237.55;;;2.29;100.0
22775;BME280;11554;51.106;3.684;2023-12-04T11:05:05;100223.36;;;2.26;100.0
22775;BME280;11554;51.106;3.684;2023-12-04T11:10:00;100208.81000000001;;;2.22;100.0
22775;BME280;11554;51.106;3.684;2023-12-04T11:15:01;100195.09000000001;;;2.19;100.0
22775;BME280;11554;51.106;3.684;2023-12-04T11:20:02;100190.09;;;2.19;100.0
22775;BME280;11554;51.106;3.684;2023-12-04T11:25:00;100174.49;;;2.21;100.0
22775;BME280;11554;51.106;3.684;2023-12-04T11:30:00;100171.06;;;2.20;100.0
22775;BME280;11554;51.106;3.684;2023-12-04T11:35:00;100158.95000000001;;;2.22;100.0
22775;BME280;11554;51.106;3.684;2023-12-04T11:40:02;100149.08;;;2.24;100.0
22775;BME280;11554;51.106;3.684;2023-12-04T11:45:00;100142.88;;;2.29;100.0
22775;BME280;11554;51.106;3.684;2023-12-04T11:50:00;100126.53;;;2.31;100.0
22775;BME280;11554;51.106;3.684;2023-12-04T11:55:00;100121.91;;;2.38;100.0
22775;BME280;11554;51.106;3.684;2023-12-04T12:05:00;100105.31999999999;;;2.43;100.0
22775;BME280;11554;51.106;3.684;2023-12-04T12:10:00;100099.49;;;2.46;100.0
22775;BME280;11554;51.106;3.684;2023-12-04T12:15:00;100095.7;;;2.48;100.0
22775;BME280;11554;51.106;3.684;2023-12-04T12:20:00;100079.90999999999;;;2.52;100.0
22775;BME280;11554;51.106;3.684;2023-12-04T12:25:00;100076.31999999999;;;2.54;100.0
22775;BME280;11554;51.106;3.684;2023-12-04T12:30:00;100067.76999999999;;;2.60;100.0
22775;BME280;11554;51.106;3.684;2023-12-04T12:35:00;100061.22;;;2.65;100.0
22775;BME280;11554;51.106;3.684;2023-12-04T12:40:00;100049.3;;;2.73;100.0
22775;BME280;11554;51.106;3.684;2023-12-04T12:45:01;100041.8;;;2.84;100.0
22775;BME280;11554;51.106;3.684;2023-12-04T12:50:00;100032.98999999999;;;2.88;100.0
22775;BME280;11554;51.106;3.684;2023-12-04T12:55:00;100033.29;;;2.90;100.0
22775;BME280;11554;51.106;3.684;2023-12-04T13:00:00;100026.99;;;2.93;100.0
22775;BME280;11554;51.106;3.684;2023-12-04T13:05:00;100012.2;;;2.91;100.0
22775;BME280;11554;51.106;3.684;2023-12-04T13:10:00;100006.26999999999;;;2.95;100.0
22775;BME280;11554;51.106;3.684;2023-12-04T13:15:00;100009.38;;;2.98;100.0
22775;BME280;11554;51.106;3.684;2023-12-04T13:20:00;100001.59;;;2.96;100.0
22775;BME280;11554;51.106;3.684;2023-12-04T13:25:00;99995.89;;;2.97;100.0
22775;BME280;11554;51.106;3.684;2023-12-04T13:30:00;99978.61;;;2.93;100.0
22775;BME280;11554;51.106;3.684;2023-12-04T13:35:00;99971.15;;;2.92;100.0
22775;BME280;11554;51.106;3.684;2023-12-04T13:40:00;99967.26999999999;;;2.90;100.0
22775;BME280;11554;51.106;3.684;2023-12-04T13:45:00;99957.76;;;2.91;100.0
22775;BME280;11554;51.106;3.684;2023-12-04T13:50:00;99942.07;;;2.91;100.0
22775;BME280;11554;51.106;3.684;2023-12-04T13:55:00;99934.75;;;2.92;100.0
22775;BME280;11554;51.106;3.684;2023-12-04T14:00:00;99931.87000000001;;;2.91;100.0
22775;BME280;11554;51.106;3.684;2023-12-04T14:05:00;99923.96;;;2.90;100.0
22775;BME280;11554;51.106;3.684;2023-12-04T14:10:00;99931.79000000001;;;2.88;100.0
22775;BME280;11554;51.106;3.684;2023-12-04T14:15:00;99922.16;;;2.84;100.0
22775;BME280;11554;51.106;3.684;2023-12-04T14:20:00;99911.23999999999;;;2.80;100.0
22775;BME280;11554;51.106;3.684;2023-12-04T14:25:00;99912.01999999999;;;2.80;100.0
22775;BME280;11554;51.106;3.684;2023-12-04T14:30:00;99900.89;;;2.79;100.0
22775;BME280;11554;51.106;3.684;2023-12-04T14:35:00;99899.75;;;2.79;100.0
22775;BME280;11554;51.106;3.684;2023-12-04T14:40:00;99892.58;;;2.77;100.0
22775;BME280;11554;51.106;3.684;2023-12-04T14:45:00;99878.78;;;2.76;100.0
22775;BME280;11554;51.106;3.684;2023-12-04T14:50:00;99875.14;;;2.77;100.0
22775;BME280;11554;51.106;3.684;2023-12-04T14:55:00;99873.69;;;2.77;100.0
22775;BME280;11554;51.106;3.684;2023-12-04T15:00:00;99873.53;;;2.78;100.0
22775;BME280;11554;51.106;3.684;2023-12-04T15:05:00;99874.98000000001;;;2.77;100.0
22775;BME280;11554;51.106;3.684;2023-12-04T15:10:00;99868.84;;;2.73;100.0
22775;BME280;11554;51.106;3.684;2023-12-04T15:15:00;99868.19;;;2.72;100.0
22775;BME280;11554;51.106;3.684;2023-12-04T15:20:00;99862.23;;;2.69;100.0
22775;BME280;11554;51.106;3.684;2023-12-04T15:25:00;99861.94;;;2.68;100.0
22775;BME280;11554;51.106;3.684;2023-12-04T15:30:00;99855.3;;;2.69;100.0
22775;BME280;11554;51.106;3.684;2023-12-04T15:35:00;99851.70000000001;;;2.71;100.0
22775;BME280;11554;51.106;3.684;2023-12-04T15:40:00;99847.55;;;2.71;100.0
22775;BME280;11554;51.106;3.684;2023-12-04T15:45:00;99846.48;;;2.72;100.0
22775;BME280;11554;51.106;3.684;2023-12-04T15:50:00;99840.67;;;2.70;100.0
22775;BME280;11554;51.106;3.684;2023-12-04T15:55:00;99838.51;;;2.71;100.0
22775;BME280;11554;51.106;3.684;2023-12-04T16:00:00;99839.39;;;2.72;100.0
22775;BME280;11554;51.106;3.684;2023-12-04T16:05:00;99825.8;;;2.73;100.0
22775;BME280;11554;51.106;3.684;2023-12-04T16:10:00;99831.12;;;2.74;100.0
22775;BME280;11554;51.106;3.684;2023-12-04T16:15:00;99824.94;;;2.78;100.0
22775;BME280;11554;51.106;3.684;2023-12-04T16:20:00;99823.69;;;2.80;100.0
22775;BME280;11554;51.106;3.684;2023-12-04T16:25:00;99819.64;;;2.81;100.0
22775;BME280;11554;51.106;3.684;2023-12-04T16:30:00;99816.28;;;2.83;100.0
22775;BME280;11554;51.106;3.684;2023-12-04T16:35:00;99814.75;;;2.85;100.0
22775;BME280;11554;51.106;3.684;2023-12-04T16:40:00;99815.0;;;2.94;100.0
22775;BME280;11554;51.106;3.684;2023-12-04T16:45:00;99810.27;;;2.95;100.0
22775;BME280;11554;51.106;3.684;2023-12-04T16:50:00;99809.34999999999;;;3.05;100.0
22775;BME280;11554;51.106;3.684;2023-12-04T16:55:00;99801.17;;;3.07;100.0
22775;BME280;11554;51.106;3.684;2023-12-04T17:00:00;99791.24;;;3.09;100.0
22775;BME280;11554;51.106;3.684;2023-12-04T17:05:00;99782.97;;;3.10;100.0
22775;BME280;11554;51.106;3.684;2023-12-04T17:10:00;99783.11;;;3.11;100.0
22775;BME280;11554;51.106;3.684;2023-12-04T17:15:00;99774.49;;;3.11;100.0
22775;BME280;11554;51.106;3.684;2023-12-04T17:20:00;99773.69;;;3.12;100.0
22775;BME280;11554;51.106;3.684;2023-12-04T17:25:00;99778.04;;;3.10;100.0
22775;BME280;11554;51.106;3.684;2023-12-04T17:30:00;99775.03;;;3.08;100.0
22775;BME280;11554;51.106;3.684;2023-12-04T17:35:00;99774.97;;;3.10;100.0
22775;BME280;11554;51.106;3.684;2023-12-04T17:40:00;99771.17;;;3.10;100.0
22775;BME280;11554;51.106;3.684;2023-12-04T17:45:01;99762.36;;;3.10;100.0
22775;BME280;11554;51.106;3.684;2023-12-04T17:50:00;99753.04;;;3.11;100.0
22775;BME280;11554;51.106;3.684;2023-12-04T17:55:00;99758.11;;;3.13;100.0
22775;BME280;11554;51.106;3.684;2023-12-04T18:00:00;99751.43000000001;;;3.15;100.0
22775;BME280;11554;51.106;3.684;2023-12-04T18:05:00;99751.17;;;3.20;100.0
22775;BME280;11554;51.106;3.684;2023-12-04T18:10:01;99740.89;;;3.26;100.0
22775;BME280;11554;51.106;3.684;2023-12-04T18:15:00;99743.47;;;3.31;100.0
22775;BME280;11554;51.106;3.684;2023-12-04T18:20:00;99742.35;;;3.31;100.0
22775;BME280;11554;51.106;3.684;2023-12-04T18:25:00;99729.98999999999;;;3.32;100.0
22775;BME280;11554;51.106;3.684;2023-12-04T18:30:00;99729.6;;;3.33;100.0
22775;BME280;11554;51.106;3.684;2023-12-04T18:35:00;99725.98000000001;;;3.35;100.0
22775;BME280;11554;51.106;3.684;2023-12-04T18:40:00;99715.91;;;3.35;100.0
22775;BME280;11554;51.106;3.684;2023-12-04T18:45:00;99712.75;;;3.37;100.0
22775;BME280;11554;51.106;3.684;2023-12-04T18:50:00;99719.3;;;3.39;100.0
22775;BME280;11554;51.106;3.684;2023-12-04T18:55:00;99719.87000000001;;;3.44;100.0
22775;BME280;11554;51.106;3.684;2023-12-04T19:00:00;99710.29999999999;;;3.44;100.0
22775;BME280;11554;51.106;3.684;2023-12-04T19:05:00;99708.26;;;3.43;100.0
22775;BME280;11554;51.106;3.684;2023-12-04T19:10:00;99704.16;;;3.43;100.0
22775;BME280;11554;51.106;3.684;2023-12-04T19:15:00;99699.34;;;3.45;100.0
22775;BME280;11554;51.106;3.684;2023-12-04T19:20:00;99693.18;;;3.47;100.0
22775;BME280;11554;51.106;3.684;2023-12-04T19:25:00;99693.92;;;3.50;100.0
22775;BME280;11554;51.106;3.684;2023-12-04T19:30:00;99693.56;;;3.51;100.0
22775;BME280;11554;51.106;3.684;2023-12-04T19:35:00;99690.59;;;3.54;100.0
22775;BME280;11554;51.106;3.684;2023-12-04T19:40:00;99685.67;;;3.58;100.0
22775;BME280;11554;51.106;3.684;2023-12-04T19:45:00;99689.61;;;3.61;100.0
22775;BME280;11554;51.106;3.684;2023-12-04T19:50:00;99682.12;;;3.60;100.0
22775;BME280;11554;51.106;3.684;2023-12-04T19:55:00;99680.76999999999;;;3.62;100.0
22775;BME280;11554;51.106;3.684;2023-12-04T20:00:00;99679.14;;;3.64;100.0
22775;BME280;11554;51.106;3.684;2023-12-04T20:05:00;99683.17;;;3.65;100.0
22775;BME280;11554;51.106;3.684;2023-12-04T20:10:00;99678.72;;;3.66;100.0
22775;BME280;11554;51.106;3.684;2023-12-04T20:15:00;99674.49;;;3.66;100.0
22775;BME280;11554;51.106;3.684;2023-12-04T20:20:00;99677.04;;;3.67;100.0
22775;BME280;11554;51.106;3.684;2023-12-04T20:25:00;99675.45;;;3.67;100.0
22775;BME280;11554;51.106;3.684;2023-12-04T20:30:00;99668.0;;;3.67;100.0
22775;BME280;11554;51.106;3.684;2023-12-04T20:35:00;99668.25;;;3.67;100.0
22775;BME280;11554;51.106;3.684;2023-12-04T20:40:00;99666.31;;;3.70;100.0
22775;BME280;11554;51.106;3.684;2023-12-04T20:45:00;99668.11;;;3.72;100.0
22775;BME280;11554;51.106;3.684;2023-12-04T20:50:00;99665.62;;;3.75;100.0
22775;BME280;11554;51.106;3.684;2023-12-04T20:55:00;99660.77;;;3.77;100.0
22775;BME280;11554;51.106;3.684;2023-12-04T21:00:00;99661.18000000001;;;3.80;100.0
22775;BME280;11554;51.106;3.684;2023-12-04T21:05:00;99665.95;;;3.84;100.0
22775;BME280;11554;51.106;3.684;2023-12-04T21:10:00;99664.58;;;3.88;100.0
22775;BME280;11554;51.106;3.684;2023-12-04T21:15:00;99665.18;;;3.93;100.0
22775;BME280;11554;51.106;3.684;2023-12-04T21:20:00;99662.66;;;3.92;100.0
22775;BME280;11554;51.106;3.684;2023-12-04T21:25:00;99663.12000000001;;;3.96;100.0
22775;BME280;11554;51.106;3.684;2023-12-04T21:30:00;99656.11;;;3.99;100.0
22775;BME280;11554;51.106;3.684;2023-12-04T21:35:00;99656.62;;;4.02;100.0
22775;BME280;11554;51.106;3.684;2023-12-04T21:40:00;99654.67;;;4.03;100.0
22775;BME280;11554;51.106;3.684;2023-12-04T21:45:00;99655.47;;;4.05;100.0
22775;BME280;11554;51.106;3.684;2023-12-04T21:50:00;99651.53;;;4.07;100.0
22775;BME280;11554;51.106;3.684;2023-12-04T21:55:00;99648.97;;;4.07;100.0
22775;BME280;11554;51.106;3.684;2023-12-04T22:00:00;99646.38;;;4.08;100.0
22775;BME280;11554;51.106;3.684;2023-12-04T22:05:00;99642.47;;;4.07;100.0
22775;BME280;11554;51.106;3.684;2023-12-04T22:10:00;99644.02;;;4.11;100.0
22775;BME280;11554;51.106;3.684;2023-12-04T22:15:00;99638.94;;;4.12;100.0
22775;BME280;11554;51.106;3.684;2023-12-04T22:20:00;99641.35;;;4.13;100.0
22775;BME280;11554;51.106;3.684;2023-12-04T22:25:00;99642.31;;;4.15;100.0
22775;BME280;11554;51.106;3.684;2023-12-04T22:30:00;99642.08;;;4.16;100.0
22775;BME280;11554;51.106;3.684;2023-12-04T22:35:00;99640.34;;;4.17;100.0
22775;BME280;11554;51.106;3.684;2023-12-04T22:40:00;99643.56;;;4.17;100.0
22775;BME280;11554;51.106;3.684;2023-12-04T22:45:00;99646.77;;;4.18;100.0
22775;BME280;11554;51.106;3.684;2023-12-04T22:50:00;99651.15;;;4.19;100.0
22775;BME280;11554;51.106;3.684;2023-12-04T22:55:00;99653.22;;;4.18;100.0
22775;BME280;11554;51.106;3.684;2023-12-04T23:00:00;99652.35;;;4.18;100.0
22775;BME280;11554;51.106;3.684;2023-12-04T23:05:00;99655.24;;;4.16;100.0
22775;BME280;11554;51.106;3.684;2023-12-04T23:10:00;99655.75;;;4.17;100.0
22775;BME280;11554;51.106;3.684;2023-12-04T23:15:00;99657.69;;;4.16;100.0
22775;BME280;11554;51.106;3.684;2023-12-04T23:20:00;99659.22;;;4.14;100.0
22775;BME280;11554;51.106;3.684;2023-12-04T23:25:00;99659.7;;;4.13;100.0
22775;BME280;11554;51.106;3.684;2023-12-04T23:30:00;99661.23999999999;;;4.10;100.0
22775;BME280;11554;51.106;3.684;2023-12-04T23:35:00;99662.12000000001;;;4.08;100.0
22775;BME280;11554;51.106;3.684;2023-12-04T23:40:00;99660.90000000001;;;4.07;100.0
22775;BME280;11554;51.106;3.684;2023-12-04T23:45:00;99660.67;;;4.06;100.0
22775;BME280;11554;51.106;3.684;2023-12-04T23:50:01;99656.76;;;4.06;100.0
22775;BME280;11554;51.106;3.684;2023-12-04T23:55:00;99650.98000000001;;;4.07;100.0
